Time;durP1;ratioP1;P1;durP2;ratioP2;P2;SDS_P1;SDS_P2;PMS_P1;PMS_P2;Temp;Humidity;BMP_temperature;BMP_pressure;BME280_temperature;BME280_humidity;BME280_pressure;Samples;Min_cycle;Max_cycle;Signal;HPM_P1;HPM_P2
2022/06/13 00:00:32;;;;;;;1.93;1.83;;;;;;;16.72;100.00;96282.69;5031011;28;101876;-63
2022/06/13 00:03:00;;;;;;;1.93;1.83;;;;;;;16.74;100.00;96293.94;5031788;28;105270;-63
2022/06/13 00:05:29;;;;;;;2.03;1.93;;;;;;;16.72;100.00;96291.53;5032277;27;102456;-63
2022/06/13 00:07:56;;;;;;;2.07;1.97;;;;;;;16.93;100.00;96284.78;5036388;28;101716;-63
2022/06/13 00:10:23;;;;;;;5.13;2.00;;;;;;;17.17;100.00;96279.31;5032217;27;102477;-63
2022/06/13 00:12:50;;;;;;;2.03;1.93;;;;;;;17.33;100.00;96275.25;5031497;28;101980;-63
2022/06/13 00:15:40;;;;;;;1.97;1.70;;;;;;;17.38;100.00;96273.31;5031527;28;105337;-63
2022/06/13 00:18:09;;;;;;;1.73;1.63;;;;;;;17.45;100.00;96275.63;5032213;28;102717;-63
2022/06/13 00:20:37;;;;;;;1.90;1.80;;;;;;;17.45;100.00;96283.69;5032603;28;101739;-63
2022/06/13 00:23:04;;;;;;;1.90;1.80;;;;;;;17.48;100.00;96291.13;5032794;28;102557;-63
2022/06/13 00:26:01;;;;;;;2.00;1.90;;;;;;;17.48;100.00;96291.94;5030627;28;105321;-63
2022/06/13 00:28:28;;;;;;;2.83;1.80;;;;;;;17.57;100.00;96289.38;5036435;28;101731;-63
2022/06/13 00:30:56;;;;;;;1.80;1.70;;;;;;;17.59;100.00;96297.94;5030347;28;106094;-63
2022/06/13 00:33:23;;;;;;;1.70;1.60;;;;;;;17.66;100.00;96301.06;5032572;28;101938;-63
2022/06/13 00:35:57;;;;;;;1.80;1.60;;;;;;;17.67;100.00;96321.47;5031107;28;105932;-63
2022/06/13 00:38:24;;;;;;;1.70;1.60;;;;;;;17.62;100.00;96338.50;5031604;27;104595;-63
2022/06/13 00:40:51;;;;;;;1.93;1.70;;;;;;;17.68;100.00;96350.75;5032365;28;101841;-63
2022/06/13 00:43:19;;;;;;;1.77;1.67;;;;;;;17.99;100.00;96399.44;5031236;28;105339;-63
2022/06/13 00:45:52;;;;;;;2.03;1.63;;;;;;;18.35;100.00;96397.72;5031598;28;102578;-63
2022/06/13 00:48:43;;;;;;;1.93;1.50;;;;;;;18.61;100.00;96396.94;5032490;28;101929;-63
2022/06/13 00:51:11;;;;;;;1.80;1.40;;;;;;;18.73;100.00;96399.09;5035185;28;102354;-63
2022/06/13 00:53:39;;;;;;;1.50;1.50;;;;;;;18.95;100.00;96396.47;5031976;27;101813;-63
2022/06/13 00:56:28;;;;;;;2.80;1.60;;;;;;;19.28;100.00;96417.59;5031168;27;101759;-63
2022/06/13 00:58:59;;;;;;;1.70;1.60;;;;;;;19.54;100.00;96415.91;5031745;27;103050;-63
2022/06/13 01:01:28;;;;;;;1.40;1.30;;;;;;;19.63;100.00;96418.66;5030546;28;102191;-63
2022/06/13 01:03:58;;;;;;;1.70;1.40;;;;;;;19.71;100.00;96426.81;5030520;28;103885;-64
2022/06/13 01:06:31;;;;;;;1.50;1.40;;;;;;;19.84;100.00;96427.88;5030134;28;105814;-63
2022/06/13 01:08:59;;;;;;;2.23;1.50;;;;;;;19.72;100.00;96436.50;5030576;28;101834;-63
2022/06/13 01:11:26;;;;;;;2.67;1.70;;;;;;;19.52;100.00;96447.75;5030497;28;104987;-63
2022/06/13 01:14:24;;;;;;;2.00;1.77;;;;;;;19.37;100.00;96439.22;5034793;28;102591;-63
2022/06/13 01:17:10;;;;;;;3.83;2.20;;;;;;;19.22;100.00;96445.75;5032052;28;102396;-63
2022/06/13 01:20:10;;;;;;;2.20;2.10;;;;;;;19.06;100.00;96449.03;5031398;28;103140;-63
2022/06/13 01:23:16;;;;;;;1.90;1.80;;;;;;;18.83;100.00;96460.84;5031480;28;101790;-64
2022/06/13 01:26:15;;;;;;;2.67;2.23;;;;;;;18.78;100.00;96467.16;5013891;27;102224;-63
2022/06/13 01:29:32;;;;;;;3.00;2.70;;;;;;;18.83;100.00;96463.56;5031307;28;103314;-63
2022/06/13 01:32:09;;;;;;;3.50;2.57;;;;;;;18.69;100.00;96471.63;4952894;28;101991;-63
2022/06/13 01:34:45;;;;;;;5.13;2.67;;;;;;;18.63;100.00;96474.75;4969452;28;102374;-63
2022/06/13 01:37:28;;;;;;;3.03;2.77;;;;;;;18.57;100.00;96481.31;4968947;28;102603;-63
2022/06/13 01:40:08;;;;;;;2.70;2.50;;;;;;;18.54;100.00;96487.31;4972786;28;101903;-63
2022/06/13 01:42:44;;;;;;;3.70;2.47;;;;;;;18.62;100.00;96490.09;4952254;28;105416;-63
2022/06/13 01:45:30;;;;;;;3.40;2.80;;;;;;;18.64;100.00;96504.06;4969365;28;101875;-63
2022/06/13 01:48:03;;;;;;;2.50;2.30;;;;;;;18.71;100.00;96498.28;4969173;28;102683;-63
2022/06/13 01:50:37;;;;;;;2.70;2.50;;;;;;;18.66;100.00;96499.19;4951936;28;103931;-63
2022/06/13 01:53:13;;;;;;;2.53;2.33;;;;;;;18.69;100.00;96503.97;4952252;28;102103;-63
2022/06/13 01:56:06;;;;;;;3.47;2.10;;;;;;;18.68;100.00;96496.97;4952621;28;105687;-63
2022/06/13 01:58:42;;;;;;;2.40;2.10;;;;;;;18.71;100.00;96493.72;4968437;28;102128;-63
2022/06/13 02:01:13;;;;;;;2.13;1.93;;;;;;;18.64;100.00;96487.13;4952046;28;102209;-63
2022/06/13 02:03:45;;;;;;;2.00;1.90;;;;;;;18.56;100.00;96485.09;4972129;28;102313;-63
2022/06/13 02:06:17;;;;;;;3.47;1.90;;;;;;;18.46;100.00;96490.66;5000066;28;101811;-63
2022/06/13 02:08:50;;;;;;;1.70;1.60;;;;;;;18.44;100.00;96490.19;5029643;28;103689;-63
2022/06/13 02:11:24;;;;;;;1.77;1.67;;;;;;;18.36;100.00;96496.25;5030475;27;102588;-63
2022/06/13 02:13:56;;;;;;;2.93;1.80;;;;;;;18.26;100.00;96489.09;5031111;28;101681;-63
2022/06/13 02:19:51;;;;;;;1.43;1.43;;;;;;;18.18;100.00;96507.81;5030455;27;103662;-63
2022/06/13 02:22:25;;;;;;;1.90;1.70;;;;;;;18.15;100.00;96503.84;5030869;28;101745;-63
2022/06/13 02:24:58;;;;;;;1.80;1.70;;;;;;;18.19;100.00;96506.72;5031127;28;101723;-63
2022/06/13 02:27:31;;;;;;;2.57;1.80;;;;;;;18.24;100.00;96503.94;5033687;27;101713;-63
2022/06/13 02:30:00;;;;;;;3.30;2.03;;;;;;;18.17;100.00;96500.84;5030711;28;102922;-63
2022/06/13 02:32:33;;;;;;;1.90;1.80;;;;;;;18.25;100.00;96510.97;5028619;28;106477;-63
2022/06/13 02:35:13;;;;;;;4.00;2.33;;;;;;;18.28;100.00;96531.88;5030780;28;101777;-63
2022/06/13 02:37:48;;;;;;;1.77;1.67;;;;;;;18.17;100.00;96543.91;5030971;28;102496;-63
2022/06/13 02:40:21;;;;;;;2.30;2.10;;;;;;;18.12;100.00;96546.69;5028921;28;105845;-63
2022/06/13 02:42:54;;;;;;;1.97;1.87;;;;;;;18.14;100.00;96547.22;5029131;28;101969;-63
2022/06/13 02:45:45;;;;;;;1.73;1.63;;;;;;;18.13;100.00;96562.56;5030684;28;102617;-63
2022/06/13 02:48:37;;;;;;;2.00;1.80;;;;;;;18.20;100.00;96567.56;5033610;28;102839;-63
2022/06/13 02:51:13;;;;;;;1.83;1.60;;;;;;;18.01;100.00;96586.44;5029100;28;105763;-63
2022/06/13 02:53:47;;;;;;;3.10;1.90;;;;;;;18.04;100.00;96579.66;5028205;28;106699;-63
2022/06/13 02:56:25;;;;;;;2.43;1.90;;;;;;;18.02;100.00;96581.84;5029106;28;101987;-63
2022/06/13 02:59:03;;;;;;;2.40;2.20;;;;;;;17.96;100.00;96596.47;5030530;28;102852;-63
2022/06/13 03:01:38;;;;;;;3.27;2.03;;;;;;;17.84;100.00;96590.72;5029745;28;102681;-63
2022/06/13 03:04:12;;;;;;;3.27;2.20;;;;;;;17.94;100.00;96585.19;5030310;28;101983;-63
2022/06/13 03:06:54;;;;;;;2.00;1.90;;;;;;;18.05;100.00;96583.94;5030498;28;101692;-63
2022/06/13 03:09:28;;;;;;;2.73;2.30;;;;;;;18.07;100.00;96574.50;5028102;28;105344;-63
2022/06/13 03:12:04;;;;;;;3.47;2.40;;;;;;;18.09;100.00;96569.59;5032405;28;102145;-63
2022/06/13 03:14:52;;;;;;;3.30;2.57;;;;;;;18.09;100.00;96558.06;5028308;28;106079;-63
2022/06/13 03:17:28;;;;;;;2.53;2.40;;;;;;;18.11;100.00;96555.88;5030411;27;101803;-63
2022/06/13 03:20:04;;;;;;;2.57;2.37;;;;;;;18.08;100.00;96564.50;5031386;28;102350;-63
2022/06/13 03:22:41;;;;;;;3.10;2.10;;;;;;;18.05;100.00;96559.72;5031503;28;106038;-63
2022/06/13 03:25:20;;;;;;;2.67;2.43;;;;;;;18.07;100.00;96552.16;5033884;28;101830;-63
2022/06/13 03:27:53;;;;;;;2.60;2.40;;;;;;;17.94;100.00;96544.84;5033383;28;104142;-63
2022/06/13 03:30:23;;;;;;;2.80;2.60;;;;;;;17.88;100.00;96544.09;5031412;28;105592;-63
2022/06/13 03:36:17;;;;;;;3.17;2.87;;;;;;;17.78;100.00;96541.59;5035663;28;102648;-63
2022/06/13 03:38:51;;;;;;;2.97;2.63;;;;;;;17.75;100.00;96538.66;5032202;28;102054;-63
2022/06/13 03:41:21;;;;;;;3.57;3.13;;;;;;;17.79;100.00;96540.50;5033410;28;102366;-63
2022/06/13 03:43:53;;;;;;;4.93;3.10;;;;;;;17.73;100.00;96568.56;5032533;27;102612;-63
2022/06/13 03:46:36;;;;;;;4.30;3.47;;;;;;;17.44;100.00;96618.16;5033400;28;102088;-63
2022/06/13 03:49:18;;;;;;;4.30;3.40;;;;;;;17.33;100.00;96646.22;5033473;28;102568;-63
2022/06/13 03:51:48;;;;;;;4.37;3.50;;;;;;;17.27;100.00;96658.91;5031130;28;103875;-63
2022/06/13 03:54:23;;;;;;;4.90;3.40;;;;;;;17.22;100.00;96691.22;5033060;28;102330;-63
2022/06/13 03:56:55;;;;;;;8.33;3.83;;;;;;;17.00;100.00;96717.75;5033289;27;102331;-63
2022/06/13 03:59:28;;;;;;;5.00;4.10;;;;;;;16.86;100.00;96683.78;5034406;28;105717;-63
2022/06/13 04:01:59;;;;;;;3.83;3.50;;;;;;;16.95;100.00;96631.06;5031456;28;104994;-63
2022/06/13 04:04:32;;;;;;;4.10;3.50;;;;;;;17.02;100.00;96615.38;5031060;28;105426;-63
2022/06/13 04:07:00;;;;;;;4.90;3.37;;;;;;;17.01;100.00;96613.78;5031634;28;101802;-63
2022/06/13 04:09:31;;;;;;;4.67;3.67;;;;;;;16.97;100.00;96615.44;5032820;27;102513;-63
2022/06/13 04:12:11;;;;;;;3.73;3.43;;;;;;;16.96;100.00;96597.72;5032377;28;102594;-63
2022/06/13 04:15:21;;;;;;;4.40;3.50;;;;;;;16.95;100.00;96582.69;5031608;28;101850;-63
2022/06/13 04:18:07;;;;;;;3.60;3.30;;;;;;;16.90;100.00;96585.44;5010635;28;105504;-63
2022/06/13 04:20:44;;;;;;;3.40;3.10;;;;;;;16.87;100.00;96581.44;5030748;28;105572;-63
2022/06/13 04:23:21;;;;;;;4.00;3.47;;;;;;;16.85;100.00;96574.75;5035952;28;101847;-63
2022/06/13 04:25:55;;;;;;;4.33;3.20;;;;;;;16.77;100.00;96569.97;5032324;28;103051;-63
2022/06/13 04:28:29;;;;;;;4.00;3.07;;;;;;;16.72;100.00;96559.28;5032865;28;101715;-63
2022/06/13 04:30:59;;;;;;;3.60;3.30;;;;;;;16.63;100.00;96571.75;5032435;27;102331;-63
2022/06/13 04:33:32;;;;;;;3.63;3.30;;;;;;;16.68;100.00;96550.22;5031775;28;104200;-63
2022/06/13 04:36:02;;;;;;;4.33;3.30;;;;;;;16.68;100.00;96529.50;5031160;28;101800;-63
2022/06/13 04:38:30;;;;;;;4.43;3.47;;;;;;;16.75;100.00;96521.94;5032328;28;102354;-63
2022/06/13 04:41:04;;;;;;;3.53;3.23;;;;;;;16.75;100.00;96529.19;5030313;28;105117;-63
2022/06/13 04:43:36;;;;;;;4.87;3.43;;;;;;;16.76;100.00;96533.47;5034497;28;101986;-63
2022/06/13 04:46:41;;;;;;;3.60;3.30;;;;;;;16.76;100.00;96525.41;5030194;28;105443;-63
2022/06/13 04:49:23;;;;;;;3.30;2.90;;;;;;;16.77;100.00;96521.63;5032199;28;101876;-63
2022/06/13 04:51:52;;;;;;;3.33;2.50;;;;;;;16.73;100.00;96523.31;5032376;28;102361;-63
2022/06/13 04:54:28;;;;;;;2.97;2.60;;;;;;;16.80;100.00;96524.56;5030038;28;106526;-63
2022/06/13 04:57:00;;;;;;;2.90;2.70;;;;;;;16.79;100.00;96531.00;5032386;28;101797;-63
2022/06/13 04:59:29;;;;;;;3.27;2.53;;;;;;;16.82;100.00;96529.63;5030186;28;105184;-63
2022/06/13 05:01:57;;;;;;;3.13;2.37;;;;;;;16.85;100.00;96534.44;5031511;28;103160;-63
2022/06/13 05:04:40;;;;;;;2.67;2.43;;;;;;;16.86;100.00;96519.91;5032006;28;101865;-63
2022/06/13 05:07:12;;;;;;;3.17;2.27;;;;;;;16.86;100.00;96509.19;5035033;28;102410;-63
2022/06/13 05:09:44;;;;;;;2.40;2.20;;;;;;;16.87;100.00;96516.97;5032008;28;101903;-63
2022/06/13 05:12:17;;;;;;;2.90;2.63;;;;;;;16.89;100.00;96517.47;5032175;28;102710;-63
2022/06/13 05:15:13;;;;;;;2.63;2.43;;;;;;;17.00;100.00;96515.47;5029906;28;105506;-63
2022/06/13 05:18:27;;;;;;;2.57;2.37;;;;;;;17.11;100.00;96530.38;5030538;28;102015;-63
2022/06/13 05:21:07;;;;;;;2.33;2.20;;;;;;;17.10;100.00;96520.69;5032005;28;102552;-63
2022/06/13 05:24:08;;;;;;;2.47;2.20;;;;;;;17.07;100.00;96519.38;5031280;28;102594;-63
2022/06/13 05:26:37;;;;;;;1.90;1.80;;;;;;;17.00;100.00;96516.25;5031795;28;101751;-63
2022/06/13 05:29:09;;;;;;;2.63;1.93;;;;;;;16.97;100.00;96514.16;5031819;28;102393;-63
2022/06/13 05:31:36;;;;;;;2.30;1.90;;;;;;;16.90;100.00;96516.38;5032983;28;105896;-63
2022/06/13 05:34:05;;;;;;;2.53;1.87;;;;;;;16.99;100.00;96519.22;5031709;28;102356;-63
2022/06/13 05:36:34;;;;;;;2.20;1.90;;;;;;;16.98;100.00;96531.88;5030845;27;102621;-63
2022/06/13 05:39:06;;;;;;;4.40;2.77;;;;;;;16.95;100.00;96524.38;5030184;28;101873;-63
2022/06/13 05:41:34;;;;;;;2.13;1.90;;;;;;;16.96;100.00;96503.69;5031830;28;102892;-63
2022/06/13 05:44:01;;;;;;;1.90;1.80;;;;;;;17.08;100.00;96512.13;5028782;28;105747;-63
2022/06/13 05:46:32;;;;;;;2.10;1.90;;;;;;;17.02;100.00;96515.97;5030179;28;101934;-63
2022/06/13 05:49:00;;;;;;;1.70;1.60;;;;;;;16.87;100.00;96516.97;5030127;28;105792;-63
2022/06/13 05:51:27;;;;;;;2.30;1.77;;;;;;;16.89;100.00;96504.03;5029321;28;105795;-63
2022/06/13 05:53:57;;;;;;;2.53;1.60;;;;;;;16.80;100.00;96510.31;5034239;28;101853;-63
2022/06/13 05:56:24;;;;;;;2.30;1.67;;;;;;;16.86;100.00;96504.63;5030614;27;102622;-63
2022/06/13 05:58:52;;;;;;;3.17;1.60;;;;;;;17.03;100.00;96499.56;5029825;28;101888;-63
2022/06/13 06:01:18;;;;;;;1.80;1.70;;;;;;;17.20;100.00;96499.06;5030885;28;102346;-63
2022/06/13 06:03:47;;;;;;;2.90;1.70;;;;;;;17.10;100.00;96499.19;5030498;28;102623;-63
2022/06/13 06:06:20;;;;;;;1.37;1.27;;;;;;;17.01;100.00;96511.69;5029724;28;101975;-63
2022/06/13 06:08:48;;;;;;;1.90;1.40;;;;;;;17.04;100.00;96500.34;5029644;28;104851;-63
2022/06/13 06:11:15;;;;;;;1.53;1.50;;;;;;;17.05;100.00;96491.22;5030500;28;102742;-63
2022/06/13 06:13:42;;;;;;;1.57;1.33;;;;;;;17.14;100.00;96486.78;5031014;28;101848;-63
2022/06/13 06:16:16;;;;;;;2.03;1.70;;;;;;;17.20;100.00;96496.38;5033811;28;102497;-63
2022/06/13 06:18:52;;;;;;;1.50;1.40;;;;;;;16.89;100.00;96527.41;5031238;28;101767;-63
2022/06/13 06:21:19;;;;;;;1.73;1.47;;;;;;;16.75;100.00;96553.34;5031017;28;102465;-63
2022/06/13 06:23:46;;;;;;;4.53;2.00;;;;;;;16.79;100.00;96552.50;5030428;28;103247;-63
2022/06/13 06:26:22;;;;;;;2.43;2.00;;;;;;;16.84;100.00;96546.28;5029344;28;101803;-63
2022/06/13 06:28:50;;;;;;;4.23;2.70;;;;;;;16.97;100.00;96540.22;5030677;28;104181;-63
2022/06/13 06:31:18;;;;;;;4.23;2.20;;;;;;;16.95;100.00;96526.28;5030061;28;101706;-63
2022/06/13 06:33:45;;;;;;;4.37;2.47;;;;;;;16.95;100.00;96555.81;5029464;28;101974;-63
2022/06/13 06:36:32;;;;;;;3.77;2.47;;;;;;;16.91;100.00;96552.91;5029365;28;106506;-63
2022/06/13 06:38:59;;;;;;;2.63;2.00;;;;;;;16.90;100.00;96558.56;5033737;28;103153;-63
2022/06/13 06:41:26;;;;;;;3.57;2.33;;;;;;;17.01;100.00;96549.31;5029162;28;105768;-63
2022/06/13 06:43:53;;;;;;;5.23;2.40;;;;;;;17.11;100.00;96558.03;5029907;28;102866;-63
2022/06/13 06:46:22;;;;;;;2.40;2.20;;;;;;;17.07;100.00;96558.91;5030530;28;101854;-63
2022/06/13 06:49:22;;;;;;;4.03;2.20;;;;;;;17.08;100.00;96560.50;5030496;28;102382;-63
2022/06/13 06:51:51;;;;;;;3.67;2.47;;;;;;;17.13;100.00;96547.00;5028434;28;104170;-63
2022/06/13 06:59:55;;;;;;;4.20;2.07;;;;;;;17.19;100.00;96540.47;5034960;28;105727;-63
2022/06/13 07:02:23;;;;;;;2.23;1.83;;;;;;;17.06;100.00;96552.72;5034063;28;102395;-63
2022/06/13 07:04:52;;;;;;;2.83;2.20;;;;;;;17.04;100.00;96556.78;5033346;28;101821;-63
2022/06/13 07:07:22;;;;;;;3.67;1.80;;;;;;;17.06;100.00;96554.63;5033804;28;101861;-63
2022/06/13 07:09:49;;;;;;;2.37;1.93;;;;;;;17.17;100.00;96554.19;5032363;28;105641;-63
2022/06/13 07:12:17;;;;;;;1.80;1.70;;;;;;;17.14;100.00;96553.97;5033274;28;103300;-63
2022/06/13 07:15:21;;;;;;;2.23;1.80;;;;;;;17.34;100.00;96549.13;5033738;28;102195;-63
2022/06/13 07:17:49;;;;;;;3.23;1.90;;;;;;;17.24;100.00;96540.41;5033961;28;102588;-63
2022/06/13 07:20:16;;;;;;;2.43;1.87;;;;;;;17.43;100.00;96547.44;5033247;28;103211;-63
2022/06/13 07:22:49;;;;;;;1.83;1.50;;;;;;;17.45;100.00;96545.25;5037036;27;101882;-63
2022/06/13 07:25:26;;;;;;;3.17;1.83;;;;;;;17.37;100.00;96548.56;5033090;28;103176;-63
2022/06/13 07:27:54;;;;;;;2.23;2.03;;;;;;;17.44;100.00;96565.16;5032349;28;102014;-63
2022/06/13 07:30:23;;;;;;;1.77;1.67;;;;;;;17.54;100.00;96558.88;5032025;28;105109;-63
2022/06/13 07:32:52;;;;;;;3.00;2.10;;;;;;;17.72;100.00;96563.47;5031335;28;106176;-63
2022/06/13 07:35:41;;;;;;;3.67;2.07;;;;;;;17.87;100.00;96547.09;5032161;28;101916;-63
2022/06/13 07:38:20;;;;;;;2.10;1.90;;;;;;;17.73;100.00;96540.84;5033643;28;102403;-63
2022/06/13 07:40:50;;;;;;;2.30;2.10;;;;;;;17.67;100.00;96542.00;5031535;28;105680;-63
2022/06/13 07:43:29;;;;;;;2.30;2.10;;;;;;;17.60;100.00;96547.75;5033284;28;101852;-63
2022/06/13 07:46:05;;;;;;;2.03;1.83;;;;;;;17.84;100.00;96542.28;5036411;28;102437;-63
2022/06/13 07:49:01;;;;;;;2.07;1.90;;;;;;;17.79;100.00;96539.69;5031985;28;101877;-63
2022/06/13 07:51:28;;;;;;;2.47;2.27;;;;;;;17.88;100.00;96530.66;5033041;28;104148;-63
2022/06/13 07:53:57;;;;;;;2.50;2.00;;;;;;;17.83;100.00;96540.69;5032300;28;103134;-63
2022/06/13 07:56:41;;;;;;;2.97;2.00;;;;;;;17.79;100.00;96542.38;5031771;28;101985;-63
2022/06/13 07:59:12;;;;;;;2.20;1.93;;;;;;;17.80;100.00;96538.56;5033248;28;102437;-64
2022/06/13 08:01:39;;;;;;;2.97;2.53;;;;;;;17.81;100.00;96543.66;5031042;28;105220;-63
2022/06/13 08:04:06;;;;;;;2.50;2.30;;;;;;;17.96;100.00;96540.75;5031661;28;101876;-63
2022/06/13 08:06:33;;;;;;;2.63;2.47;;;;;;;18.18;100.00;96542.81;5032540;28;102854;-63
2022/06/13 08:09:01;;;;;;;3.37;2.80;;;;;;;18.47;100.00;96549.63;5035890;28;102844;-63
2022/06/13 08:11:31;;;;;;;2.40;2.20;;;;;;;18.68;100.00;96539.28;5031675;28;105271;-63
2022/06/13 08:13:58;;;;;;;3.33;2.53;;;;;;;18.52;100.00;96543.38;5031010;28;105837;-63
2022/06/13 08:16:26;;;;;;;3.97;2.50;;;;;;;18.23;100.00;96540.84;5014680;28;102022;-63
2022/06/13 08:18:53;;;;;;;2.97;2.33;;;;;;;18.19;100.00;96556.00;5032842;28;102590;-63
2022/06/13 08:21:21;;;;;;;3.83;2.80;;;;;;;18.21;100.00;96550.31;5030540;28;105268;-63
2022/06/13 08:23:48;;;;;;;3.90;2.53;;;;;;;18.27;100.00;96557.22;5032592;27;101761;-63
2022/06/13 08:26:47;;;;;;;3.40;2.10;;;;;;;18.28;100.00;96545.34;5032682;27;102291;-63
2022/06/13 08:29:15;;;;;;;2.17;2.07;;;;;;;18.55;100.00;96548.97;5030662;28;105583;-63
2022/06/13 08:31:42;;;;;;;2.60;2.40;;;;;;;18.67;100.00;96551.16;5034520;28;101871;-63
2022/06/13 08:34:09;;;;;;;2.17;2.07;;;;;;;18.70;100.00;96558.66;5031850;27;102601;-63
2022/06/13 08:36:56;;;;;;;3.23;2.40;;;;;;;18.61;100.00;96569.31;5032297;28;101856;-63
2022/06/13 08:39:24;;;;;;;2.67;2.30;;;;;;;18.65;100.00;96564.13;5031201;28;102513;-63
2022/06/13 08:41:58;;;;;;;3.30;2.40;;;;;;;18.66;100.00;96569.22;5031703;28;103204;-63
2022/06/13 08:45:03;;;;;;;2.40;2.20;;;;;;;18.65;100.00;96580.28;5032363;28;101812;-63
2022/06/13 08:47:40;;;;;;;2.57;2.37;;;;;;;18.35;100.00;96580.78;5032566;28;102905;-63
2022/06/13 08:50:18;;;;;;;2.30;2.20;;;;;;;18.24;100.00;96582.84;5030202;28;105594;-63
2022/06/13 08:52:50;;;;;;;2.40;2.20;;;;;;;18.17;100.00;96581.59;5032220;28;101995;-63
2022/06/13 08:55:31;;;;;;;3.27;2.20;;;;;;;18.14;100.00;96590.28;5035247;27;102883;-63
2022/06/13 08:58:08;;;;;;;2.97;2.60;;;;;;;18.20;100.00;96592.59;5030912;28;102105;-63
2022/06/13 09:00:37;;;;;;;3.17;2.27;;;;;;;18.10;100.00;96595.44;5031871;28;102947;-63
2022/06/13 09:03:10;;;;;;;3.50;2.20;;;;;;;18.09;100.00;96596.53;5030301;28;103405;-63
2022/06/13 09:05:45;;;;;;;3.83;2.20;;;;;;;18.15;100.00;96597.25;5032464;27;101799;-63
2022/06/13 09:08:18;;;;;;;2.47;1.90;;;;;;;18.35;100.00;96602.34;5030596;28;105296;-63
2022/06/13 09:10:53;;;;;;;1.93;1.80;;;;;;;18.40;100.00;96605.75;5030224;28;105347;-63
2022/06/13 09:13:29;;;;;;;2.77;2.20;;;;;;;18.52;100.00;96608.00;5032194;28;102056;-63
2022/06/13 09:16:12;;;;;;;2.30;2.10;;;;;;;18.90;100.00;96609.47;5034945;27;102305;-63
2022/06/13 09:19:01;;;;;;;2.80;2.23;;;;;;;18.85;100.00;96594.19;5029562;28;101915;-63
2022/06/13 09:21:38;;;;;;;2.63;1.97;;;;;;;19.06;100.00;96600.00;5031805;27;102585;-63
2022/06/13 09:24:14;;;;;;;2.50;2.30;;;;;;;19.44;100.00;96588.75;5031444;27;102698;-63
2022/06/13 09:26:47;;;;;;;2.60;2.40;;;;;;;19.60;100.00;96595.44;5031873;28;101772;-63
2022/06/13 09:29:22;;;;;;;2.40;2.20;;;;;;;19.95;100.00;96605.44;5032119;28;102381;-63
2022/06/13 09:31:55;;;;;;;2.33;2.00;;;;;;;20.35;100.00;96587.53;5031196;28;102560;-63
2022/06/13 09:34:29;;;;;;;3.77;2.23;;;;;;;21.01;100.00;96585.59;5031789;28;101812;-63
2022/06/13 09:37:04;;;;;;;4.00;2.40;;;;;;;21.30;100.00;96582.38;5030235;28;105186;-63
2022/06/13 09:39:31;;;;;;;2.77;2.57;;;;;;;21.05;100.00;96577.66;5034292;28;102626;-63
2022/06/13 09:42:23;;;;;;;3.03;2.80;;;;;;;21.31;100.00;96576.63;5031544;28;102570;-63
2022/06/13 09:45:24;;;;;;;2.80;2.57;;;;;;;21.62;100.00;96576.56;5030948;28;102585;-63
2022/06/13 09:48:02;;;;;;;2.63;2.43;;;;;;;21.01;100.00;96579.38;5030080;28;101757;-63
2022/06/13 09:50:37;;;;;;;3.47;2.80;;;;;;;20.70;100.00;96589.38;5029905;28;105124;-63
2022/06/13 09:53:11;;;;;;;2.80;2.60;;;;;;;20.85;100.00;96586.25;5030733;28;102872;-63
2022/06/13 09:55:47;;;;;;;3.17;2.60;;;;;;;20.75;100.00;96595.44;5031401;28;101718;-63
2022/06/13 09:58:25;;;;;;;3.67;2.67;;;;;;;20.23;100.00;96588.13;5031240;28;102519;-64
2022/06/13 10:01:01;;;;;;;4.60;2.43;;;;;;;20.32;100.00;96578.16;5030168;28;102046;-63
2022/06/13 10:03:39;;;;;;;2.57;2.37;;;;;;;20.39;100.00;96577.72;5034828;28;101714;-63
2022/06/13 10:06:11;;;;;;;2.67;2.20;;;;;;;20.28;100.00;96577.16;5030715;27;102478;-63
2022/06/13 10:08:50;;;;;;;2.50;2.20;;;;;;;20.28;100.00;96568.28;5029766;28;102032;-63
2022/06/13 10:11:29;;;;;;;2.67;2.43;;;;;;;20.29;100.00;96559.06;5031813;28;101658;-63
2022/06/13 10:14:19;;;;;;;3.40;2.40;;;;;;;20.14;100.00;96567.53;5030505;28;102713;-63
2022/06/13 10:17:00;;;;;;;2.20;2.00;;;;;;;20.11;100.00;96574.34;5013748;28;101964;-63
2022/06/13 10:19:54;;;;;;;3.67;2.20;;;;;;;20.11;100.00;96565.44;5029582;28;105502;-63
2022/06/13 10:22:31;;;;;;;3.23;2.20;;;;;;;20.22;100.00;96577.63;5028834;28;105745;-63
2022/06/13 10:25:09;;;;;;;3.77;2.53;;;;;;;20.39;100.00;96572.34;5029336;28;101809;-63
2022/06/13 10:27:47;;;;;;;3.20;2.07;;;;;;;20.95;100.00;96569.81;5032247;28;105093;-63
2022/06/13 10:30:31;;;;;;;2.20;2.00;;;;;;;21.23;100.00;96573.91;5030454;27;101854;-63
2022/06/13 10:33:12;;;;;;;1.93;1.80;;;;;;;21.01;100.00;96587.50;5030842;28;102910;-63
2022/06/13 10:35:49;;;;;;;2.10;1.60;;;;;;;21.50;100.00;96573.66;5030159;27;102715;-63
2022/06/13 10:38:32;;;;;;;2.53;1.70;;;;;;;21.60;100.00;96570.66;5030790;28;101775;-63
2022/06/13 10:40:59;;;;;;;2.77;1.83;;;;;;;21.56;100.00;96569.69;5029555;28;105055;-63
2022/06/13 10:43:27;;;;;;;1.60;1.50;;;;;;;21.21;100.00;96573.44;5029915;28;101737;-63
2022/06/13 10:46:00;;;;;;;2.53;1.60;;;;;;;20.98;100.00;96582.72;5030644;28;101888;-63
2022/06/13 10:48:55;;;;;;;1.93;1.40;;;;;;;20.89;100.00;96582.69;5030684;28;102362;-63
2022/06/13 10:51:23;;;;;;;3.13;1.50;;;;;;;21.01;100.00;96587.50;5033688;28;103151;-63
2022/06/13 10:53:57;;;;;;;2.40;1.77;;;;;;;21.05;100.00;96580.34;5028981;28;105070;-63
2022/06/13 10:56:28;;;;;;;2.40;1.67;;;;;;;21.15;100.00;96580.09;5030030;28;102528;-63
2022/06/13 10:58:58;;;;;;;2.73;1.90;;;;;;;21.40;100.00;96584.78;5030544;28;101929;-63
2022/06/13 11:01:28;;;;;;;2.10;1.80;;;;;;;21.70;100.00;96584.72;5028870;28;105897;-63
2022/06/13 11:04:06;;;;;;;2.17;1.63;;;;;;;21.64;100.00;96577.84;5029507;28;101744;-63
2022/06/13 11:06:48;;;;;;;2.73;1.80;;;;;;;21.77;100.00;96592.38;5030313;27;101734;-63
2022/06/13 11:09:27;;;;;;;2.00;1.90;;;;;;;21.57;100.00;96599.16;5030116;28;103908;-63
2022/06/13 11:11:57;;;;;;;2.13;1.93;;;;;;;21.35;100.00;96595.75;5029452;28;102710;-63
2022/06/13 11:23:07;;;;;;;2.33;1.90;;;;;;;21.78;100.00;96597.50;5030371;27;102272;-63
2022/06/13 11:25:38;;;;;;;2.70;1.70;;;;;;;22.00;100.00;96607.38;5029232;27;102814;-62
2022/06/13 11:28:09;;;;;;;1.60;1.50;;;;;;;21.97;100.00;96597.97;5030305;27;102085;-63
2022/06/13 11:30:46;;;;;;;1.50;1.40;;;;;;;21.72;100.00;96601.47;5028393;28;105600;-63
2022/06/13 11:33:28;;;;;;;2.27;1.50;;;;;;;21.93;100.00;96605.16;5029513;28;102566;-63
2022/06/13 11:36:04;;;;;;;2.67;1.73;;;;;;;22.12;100.00;96607.59;5031958;28;102211;-63
2022/06/13 11:38:33;;;;;;;3.27;1.73;;;;;;;21.51;100.00;96605.03;5029504;27;102930;-63
2022/06/13 11:41:15;;;;;;;2.60;1.50;;;;;;;21.94;100.00;96608.66;5029550;27;101975;-63
2022/06/13 11:43:53;;;;;;;3.70;1.83;;;;;;;22.52;100.00;96595.47;5031916;28;105505;-63
2022/06/13 11:46:35;;;;;;;3.57;1.60;;;;;;;22.44;100.00;96596.25;5031285;28;105347;-63
2022/06/13 11:49:06;;;;;;;2.50;1.60;;;;;;;23.05;100.00;96595.84;5033473;27;102017;-63
2022/06/13 11:51:42;;;;;;;2.50;1.47;;;;;;;23.07;100.00;96599.81;5033409;27;102287;-62
2022/06/13 11:54:22;;;;;;;3.43;1.67;;;;;;;23.05;100.00;96595.84;5031060;28;103920;-63
2022/06/13 11:56:49;;;;;;;2.43;1.60;;;;;;;22.62;100.00;96603.28;5033313;27;102047;-63
2022/06/13 11:59:19;;;;;;;1.90;1.53;;;;;;;22.50;100.00;96592.31;5034208;28;105186;-62
2022/06/13 12:01:46;;;;;;;2.57;1.70;;;;;;;22.81;100.00;96598.28;5033273;28;101797;-63
2022/06/13 12:04:19;;;;;;;6.83;4.53;;;;;;;22.88;100.00;96580.41;5031600;28;105436;-63
2022/06/13 12:06:50;;;;;;;2.10;1.43;;;;;;;22.40;100.00;96595.31;5030845;28;106056;-63
2022/06/13 12:09:23;;;;;;;2.00;1.33;;;;;;;22.11;100.00;96609.47;5033285;28;102098;-63
2022/06/13 12:11:56;;;;;;;1.93;1.50;;;;;;;22.47;100.00;96601.88;5031465;28;105877;-62
2022/06/13 12:14:23;;;;;;;3.63;1.37;;;;;;;22.51;100.00;96597.38;5030904;28;105322;-63